This is the latest recevied weather packets stored in our database for station/object KJ4RDP-13. If no packets are shown the sender has not sent any weather packets the latest 1 day(s).
| Time | Temp. | Humidity | Pressure | Rain* | Wind** | Luminosity | Snow |
|---|---|---|---|---|---|---|---|
| 1778070377 | 16.67° C | 80% | 1013.1 hPa | 0 mm | - | 52 W/m² | - |
| 1778070075 | 16.67° C | 78% | 1013.1 hPa | 0 mm | - | 54 W/m² | - |
| 1778069167 | 16.67° C | 78% | 1013.5 hPa | 0 mm | - | 73 W/m² | - |
| 1778068260 | 17.22° C | 77% | 1013.5 hPa | 0 mm | - | 46 W/m² | - |
| 1778067655 | 17.22° C | 76% | 1013.1 hPa | 0 mm | - | 41 W/m² | - |
| 1778066444 | 17.22° C | 77% | 1013.8 hPa | 0 mm | - | 18 W/m² | - |
| 1778063719 | 16.67° C | 77% | 1013.1 hPa | 0 mm | - | 0 W/m² | - |
| 1778063416 | 16.67° C | 76% | 1012.8 hPa | 0 mm | - | 0 W/m² | - |
| 1778062811 | 16.67° C | 76% | 1012.8 hPa | 0 mm | - | 0 W/m² | - |
| 1778062205 | 17.22° C | 73% | 1012.3 hPa | 0 mm | - | 0 W/m² | - |
| 1778061602 | 16.67° C | 75% | 1012.3 hPa | 0 mm | - | 0 W/m² | - |
| 1778060995 | 17.22° C | 74% | 1012.3 hPa | 0 mm | - | 0 W/m² | - |
| 1778060089 | 17.78° C | 74% | 1012.3 hPa | 0 mm | - | 0 W/m² | - |
| 1778059180 | 17.78° C | 71% | 1012.3 hPa | 0 mm | - | 0 W/m² | - |
| 1778058879 | 17.78° C | 70% | 1012.3 hPa | 0 mm | - | 0 W/m² | - |
| 1778058576 | 17.78° C | 71% | 1012.3 hPa | 0 mm | - | 0 W/m² | - |
| 1778057060 | 17.78° C | 72% | 1012.3 hPa | 0 mm | - | 0 W/m² | - |
| 1778056756 | 17.78° C | 70% | 1012.3 hPa | 0 mm | - | 0 W/m² | - |
| 1778056151 | 18.33° C | 69% | 1012.8 hPa | 0 mm | - | 0 W/m² | - |
| 1778055848 | 17.78° C | 70% | 1012.8 hPa | 0 mm | - | 0 W/m² | - |
| 1778055242 | 17.78° C | 69% | 1012.3 hPa | 0 mm | - | 0 W/m² | - |
| 1778054030 | 16.67° C | 68% | 1012.8 hPa | 0 mm | - | 0 W/m² | - |
| 1778053424 | 15.56° C | 73% | 1012.8 hPa | 0 mm | - | 0 W/m² | - |
| 1778053122 | 15° C | 77% | 1012.8 hPa | 0 mm | - | 0 W/m² | - |
| 1778052516 | 13.33° C | 84% | 1012.8 hPa | 0 mm | - | 0 W/m² | - |
* Rain latest hour (hover to see other rain measurements)
** Current wind speed in m/s (hover to see current wind gust speed)